Česky Dansk Deutsch English Español Suomi Français Magyar Italiano Nederlands norsk Polski Português svenska Türkçe

 

Het Weer

Marseille / Marignane (Frankrijk)

17:00, 19 augustus 2016 (GMT)

NWNNE
WE
SWSSE
Home            
Marseille / Marignane Aix Les Milles Salon Istres Nimes / Garons Nimes / Courbessac Orange Hyeres St-Auban-Sur-Durance Le Luc Montpellier St-Raphael Montelimar Cannes Beziers / Vias Nice Mende / Brenoux Perpignan Grenoble / St. Geoirs Le Puy Monte Malanotte Cuneo / Levaldigi Cassagnes-Begonhes

Om een weerknop op uw website of weblog te plaatsen, copieer onderstaande code en plak die in uw pagina. In het eerste vakje staat HTML-code, in het tweede vakje UBB-code.


Add to Google

Details

Wind speed:3 bf, 8 kn, 4.1 m/s, 9.2 miles/h, 14.8 km/h
Wind direction:WSW, 250°
Visibility:Greater than 10000 m, 10 km, 32800 ft, 6.2 miles
Temperature:27°C, 81°F
Gefühlte Temperatur:28°C, 83°F
Dew-point:18°C, 64°F
Atmospheric pressure:1011 hPa, 758.3 mmHg, 29.85 inHg, 0.998 atm
Relative humidity:57.9 %
METAR:LFML 191700Z AUTO 25008KT 9999 4600 NSC 27/18 Q1011 NOSIG

Snelkoppelingen

Actuele weersinformatie van de hele wereld. Voeg locaties toe met het plus (+) symbool. Deze snelkoppelingen kunnen worden toegevoegd aan Google.

Lid van de Technetium groep

website free tracking
StatCounter NetStat W3C Validator

03-10-2022 12:29:21
astro.technetium.be money.technetium.be phote.technetium.be tafeltennistafel.technetium.be www.ligfiets.net